»·PEaware :: N461D KSAN-KSNA

N461D :: KSAN-KSNA

FLIGHT INFORMATION

Flight Status: Arrived
Operator: Privately registered:
United States
More flights under this callsign
Pilot: Daniel R. (17770)
Aircraft: CESSNA 172 SKYHAWK
(C172)
More flights by this aircraft type
Origin: KSAN San Diego Intl-Lindbergh
United States
Destination: KSNA John Wayne-Orange Co
United States
More flights between these airports :: More routes between these airports
Route: OCN V23 SLI
File this flight plan on PilotEdge
Remarks: Practicing for instrument rating / give me a suprise to help with skills if able Thank you
Altitude:
(Current/Filed)
6,000ft
Speed:
(Current/Filed)
115kts
Departed: 09-Aug-18 06:38 PM
Arrived: 09-Aug-18 07:43 PM
Distance/Time
Traveled:
66nm/1:04
Distance/Time
To Go:
Arrived

Flight Plot

Page will automatically refresh every two minutes.


Map Options




Map Legend


Flown Route
Filed Route
Departure Airport
Arrival Airport
Navaid (VOR, NDB)
Fix

Horizontal Profiles

Position Reports

Time Latitude Longitude Heading Altitude Ground
Speed
09-Aug-18 18:24 32.732775 -117.179719 195 21ft 0kts
09-Aug-18 18:25 32.732775 -117.179719 195 21ft 0kts
09-Aug-18 18:26 32.732775 -117.179719 195 21ft 0kts
09-Aug-18 18:27 32.732775 -117.179719 195 21ft 0kts
09-Aug-18 18:28 32.732775 -117.179719 195 21ft 0kts
09-Aug-18 18:29 32.732775 -117.179719 195 21ft 0kts
09-Aug-18 18:30 32.732775 -117.179719 195 21ft 0kts
09-Aug-18 18:31 32.732775 -117.179719 195 21ft 0kts
09-Aug-18 18:32 32.732775 -117.179719 195 21ft 0kts
09-Aug-18 18:33 32.732775 -117.179719 195 21ft 0kts
09-Aug-18 18:34 32.732775 -117.179719 195 21ft 0kts
09-Aug-18 18:35 32.732775 -117.179719 195 21ft 0kts
09-Aug-18 18:36 32.731921 -117.178156 106 21ft 18kts
09-Aug-18 18:37 32.731451 -117.175699 207 21ft 0kts
09-Aug-18 18:38 32.731388 -117.175723 193 21ft 7kts
09-Aug-18 18:39 32.731414 -117.181008 284 21ft 77kts
09-Aug-18 18:40 32.738687 -117.204102 311 674ft 80kts
09-Aug-18 18:41 32.756474 -117.217962 320 1525ft 76kts
09-Aug-18 18:42 32.774363 -117.232944 320 2252ft 82kts
09-Aug-18 18:43 32.793289 -117.248851 320 2967ft 84kts
09-Aug-18 18:44 32.812645 -117.265070 318 3649ft 86kts
09-Aug-18 18:45 32.834195 -117.277696 338 4293ft 89kts
09-Aug-18 18:46 32.858436 -117.285333 345 4904ft 92kts
09-Aug-18 18:47 32.883179 -117.293332 339 5483ft 93kts
09-Aug-18 18:48 32.908361 -117.302565 339 5982ft 103kts
09-Aug-18 18:49 32.940541 -117.313779 341 5990ft 129kts
09-Aug-18 18:50 32.975233 -117.325720 341 5991ft 131kts
09-Aug-18 18:51 33.010204 -117.337833 341 5991ft 131kts
09-Aug-18 18:52 33.045258 -117.349978 341 5991ft 132kts
09-Aug-18 18:53 33.080627 -117.362251 341 5992ft 132kts
09-Aug-18 18:54 33.113893 -117.373801 341 5989ft 132kts
09-Aug-18 18:55 33.149319 -117.386123 342 5988ft 133kts
09-Aug-18 18:56 33.184757 -117.398457 342 5987ft 133kts
09-Aug-18 18:57 33.220347 -117.410849 342 5985ft 133kts
09-Aug-18 18:58 33.251827 -117.431564 313 5985ft 131kts
09-Aug-18 18:59 33.278087 -117.461714 312 5984ft 131kts
09-Aug-18 19:00 33.304135 -117.491947 312 5985ft 130kts
09-Aug-18 19:01 33.330199 -117.522203 312 5987ft 130kts
09-Aug-18 19:02 33.355941 -117.552338 312 5988ft 129kts
09-Aug-18 19:03 33.381693 -117.582436 312 5989ft 128kts
09-Aug-18 19:04 33.407164 -117.612208 312 5989ft 128kts
09-Aug-18 19:05 33.432722 -117.642112 312 5987ft 128kts
09-Aug-18 19:06 33.457784 -117.671455 312 5984ft 129kts
09-Aug-18 19:07 33.483332 -117.701399 312 5990ft 129kts
09-Aug-18 19:08 33.509226 -117.731771 312 5990ft 130kts
09-Aug-18 19:09 33.535232 -117.762296 313 5990ft 131kts
09-Aug-18 19:10 33.561401 -117.793044 313 5980ft 133kts
09-Aug-18 19:11 33.589016 -117.825507 313 5689ft 141kts
09-Aug-18 19:12 33.616752 -117.858095 313 5253ft 140kts
09-Aug-18 19:13 33.643942 -117.890124 313 4807ft 138kts
09-Aug-18 19:14 33.670466 -117.921406 313 4336ft 136kts
09-Aug-18 19:15 33.696439 -117.952082 313 3989ft 132kts
09-Aug-18 19:16 33.720502 -117.980619 313 3986ft 134kts
09-Aug-18 19:17 33.744469 -118.008930 313 3984ft 134kts
09-Aug-18 19:18 33.767415 -118.036101 313 3983ft 134kts
09-Aug-18 19:19 33.793819 -118.039989 60 3971ft 131kts
09-Aug-18 19:20 33.805050 -118.002299 69 3981ft 129kts
09-Aug-18 19:21 33.819636 -117.964862 67 3981ft 130kts
09-Aug-18 19:22 33.834654 -117.927428 67 3981ft 129kts
09-Aug-18 19:23 33.849680 -117.890001 67 3980ft 129kts
09-Aug-18 19:24 33.865107 -117.851540 67 3979ft 129kts
09-Aug-18 19:25 33.880673 -117.812685 67 3977ft 129kts
09-Aug-18 19:26 33.896347 -117.773504 67 3975ft 131kts
09-Aug-18 19:27 33.912279 -117.733626 67 3974ft 133kts
09-Aug-18 19:28 33.937375 -117.700503 27 3668ft 145kts
09-Aug-18 19:29 33.971211 -117.679193 25 3504ft 136kts
09-Aug-18 19:30 33.993519 -117.690660 248 3489ft 110kts
09-Aug-18 19:31 33.965974 -117.704730 192 3487ft 115kts
09-Aug-18 19:32 33.934486 -117.711229 189 3479ft 115kts
09-Aug-18 19:33 33.904525 -117.723075 207 3442ft 116kts
09-Aug-18 19:34 33.875314 -117.741867 206 3287ft 118kts
09-Aug-18 19:35 33.847752 -117.759435 206 3381ft 115kts
09-Aug-18 19:36 33.818201 -117.778358 206 2795ft 118kts
09-Aug-18 19:37 33.790890 -117.795665 206 2462ft 123kts
09-Aug-18 19:38 33.762575 -117.813676 207 1870ft 114kts
09-Aug-18 19:39 33.744294 -117.825319 204 1452ft 58kts
09-Aug-18 19:40 33.728846 -117.835021 205 1121ft 72kts
09-Aug-18 19:41 33.710825 -117.846517 205 728ft 75kts
09-Aug-18 19:42 33.692936 -117.857883 205 340ft 64kts
09-Aug-18 19:43 33.678329 -117.867169 205 60ft 53kts
09-Aug-18 19:44 33.674405 -117.868472 159 60ft 0kts
09-Aug-18 19:45 33.673118 -117.867235 222 60ft 14kts
09-Aug-18 19:46 33.668494 -117.871563 219 60ft 22kts
09-Aug-18 19:47 33.665917 -117.872982 224 60ft 0kts
09-Aug-18 19:48 33.665917 -117.872982 224 60ft 0kts
09-Aug-18 19:49 33.665917 -117.872982 224 60ft 0kts

Navigation Log

Ident Type
Flight plan parsing failed, navigation log unavailable